sensor_id;sensor_type;location;lat;lon;timestamp;P1;durP1;ratioP1;P2;durP2;ratioP2
62509;SDS011;48558;48.242;11.654;2023-06-22T00:00:26;4.88;;;3.35;;
62509;SDS011;48558;48.242;11.654;2023-06-22T00:04:39;5.82;;;3.42;;
62509;SDS011;48558;48.242;11.654;2023-06-22T00:08:59;5.47;;;3.20;;
62509;SDS011;48558;48.242;11.654;2023-06-22T00:13:16;3.78;;;2.90;;
62509;SDS011;48558;48.242;11.654;2023-06-22T00:17:29;4.00;;;2.80;;
62509;SDS011;48558;48.242;11.654;2023-06-22T00:21:52;3.30;;;2.90;;
62509;SDS011;48558;48.242;11.654;2023-06-22T00:26:05;5.35;;;3.55;;
62509;SDS011;48558;48.242;11.654;2023-06-22T00:30:18;3.25;;;2.63;;
62509;SDS011;48558;48.242;11.654;2023-06-22T00:34:31;8.73;;;3.10;;
62509;SDS011;48558;48.242;11.654;2023-06-22T00:38:43;4.75;;;3.08;;
62509;SDS011;48558;48.242;11.654;2023-06-22T00:42:56;3.97;;;2.75;;
62509;SDS011;48558;48.242;11.654;2023-06-22T00:47:08;3.03;;;2.70;;
62509;SDS011;48558;48.242;11.654;2023-06-22T00:51:21;3.70;;;2.78;;
62509;SDS011;48558;48.242;11.654;2023-06-22T00:55:42;7.78;;;2.55;;
62509;SDS011;48558;48.242;11.654;2023-06-22T00:59:56;2.70;;;2.50;;
62509;SDS011;48558;48.242;11.654;2023-06-22T01:04:10;5.53;;;2.83;;
62509;SDS011;48558;48.242;11.654;2023-06-22T01:08:29;5.10;;;3.25;;
62509;SDS011;48558;48.242;11.654;2023-06-22T01:12:45;3.45;;;2.90;;
62509;SDS011;48558;48.242;11.654;2023-06-22T01:17:01;4.45;;;2.88;;
62509;SDS011;48558;48.242;11.654;2023-06-22T01:21:15;3.35;;;2.50;;
62509;SDS011;48558;48.242;11.654;2023-06-22T01:25:39;3.15;;;2.83;;
62509;SDS011;48558;48.242;11.654;2023-06-22T01:29:58;6.20;;;2.95;;
62509;SDS011;48558;48.242;11.654;2023-06-22T01:34:14;10.73;;;3.17;;
62509;SDS011;48558;48.242;11.654;2023-06-22T01:38:32;3.65;;;3.08;;
62509;SDS011;48558;48.242;11.654;2023-06-22T01:42:45;3.80;;;3.00;;
62509;SDS011;48558;48.242;11.654;2023-06-22T01:46:58;4.40;;;2.92;;
62509;SDS011;48558;48.242;11.654;2023-06-22T01:51:11;4.38;;;3.10;;
62509;SDS011;48558;48.242;11.654;2023-06-22T01:55:24;5.10;;;3.10;;
62509;SDS011;48558;48.242;11.654;2023-06-22T01:59:37;8.02;;;2.97;;
62509;SDS011;48558;48.242;11.654;2023-06-22T02:04:06;8.80;;;3.55;;
62509;SDS011;48558;48.242;11.654;2023-06-22T02:08:25;6.03;;;3.10;;
62509;SDS011;48558;48.242;11.654;2023-06-22T02:12:41;4.85;;;2.65;;
62509;SDS011;48558;48.242;11.654;2023-06-22T02:16:54;4.00;;;3.22;;
62509;SDS011;48558;48.242;11.654;2023-06-22T02:21:07;3.88;;;3.33;;
62509;SDS011;48558;48.242;11.654;2023-06-22T02:25:29;3.88;;;2.78;;
62509;SDS011;48558;48.242;11.654;2023-06-22T02:29:42;5.18;;;3.42;;
62509;SDS011;48558;48.242;11.654;2023-06-22T02:33:54;6.65;;;3.55;;
62509;SDS011;48558;48.242;11.654;2023-06-22T02:38:07;6.82;;;3.88;;
62509;SDS011;48558;48.242;11.654;2023-06-22T02:42:20;4.68;;;3.70;;
62509;SDS011;48558;48.242;11.654;2023-06-22T02:46:33;6.30;;;3.55;;
62509;SDS011;48558;48.242;11.654;2023-06-22T02:50:46;5.32;;;3.53;;
62509;SDS011;48558;48.242;11.654;2023-06-22T02:54:59;8.82;;;3.78;;
62509;SDS011;48558;48.242;11.654;2023-06-22T02:59:11;5.07;;;3.20;;
62509;SDS011;48558;48.242;11.654;2023-06-22T03:03:31;5.35;;;3.60;;
62509;SDS011;48558;48.242;11.654;2023-06-22T03:07:53;7.25;;;3.17;;
62509;SDS011;48558;48.242;11.654;2023-06-22T03:12:05;5.68;;;3.30;;
62509;SDS011;48558;48.242;11.654;2023-06-22T03:16:18;4.25;;;3.17;;
62509;SDS011;48558;48.242;11.654;2023-06-22T03:20:41;5.13;;;3.83;;
62509;SDS011;48558;48.242;11.654;2023-06-22T03:25:04;6.15;;;3.20;;
62509;SDS011;48558;48.242;11.654;2023-06-22T03:29:16;6.72;;;3.22;;
62509;SDS011;48558;48.242;11.654;2023-06-22T03:33:29;5.13;;;3.10;;
62509;SDS011;48558;48.242;11.654;2023-06-22T03:37:41;9.00;;;4.13;;
62509;SDS011;48558;48.242;11.654;2023-06-22T03:41:54;7.70;;;4.60;;
62509;SDS011;48558;48.242;11.654;2023-06-22T03:46:16;6.22;;;3.63;;
62509;SDS011;48558;48.242;11.654;2023-06-22T03:50:29;9.13;;;3.70;;
62509;SDS011;48558;48.242;11.654;2023-06-22T03:54:42;5.88;;;3.67;;
62509;SDS011;48558;48.242;11.654;2023-06-22T03:58:54;4.97;;;3.88;;
62509;SDS011;48558;48.242;11.654;2023-06-22T04:03:16;10.43;;;4.07;;
62509;SDS011;48558;48.242;11.654;2023-06-22T04:07:31;8.88;;;4.07;;
62509;SDS011;48558;48.242;11.654;2023-06-22T04:11:43;7.85;;;3.90;;
62509;SDS011;48558;48.242;11.654;2023-06-22T04:15:56;6.57;;;4.07;;
62509;SDS011;48558;48.242;11.654;2023-06-22T04:20:09;7.05;;;3.72;;
62509;SDS011;48558;48.242;11.654;2023-06-22T04:24:22;4.82;;;3.15;;
62509;SDS011;48558;48.242;11.654;2023-06-22T04:28:34;4.40;;;3.22;;
62509;SDS011;48558;48.242;11.654;2023-06-22T04:32:47;4.95;;;3.75;;
62509;SDS011;48558;48.242;11.654;2023-06-22T04:37:08;5.40;;;3.65;;
62509;SDS011;48558;48.242;11.654;2023-06-22T04:41:21;6.25;;;3.55;;
62509;SDS011;48558;48.242;11.654;2023-06-22T04:45:45;5.55;;;3.80;;
62509;SDS011;48558;48.242;11.654;2023-06-22T04:49:58;5.80;;;3.17;;
62509;SDS011;48558;48.242;11.654;2023-06-22T04:54:20;7.95;;;3.65;;
62509;SDS011;48558;48.242;11.654;2023-06-22T04:58:32;4.22;;;3.25;;
62509;SDS011;48558;48.242;11.654;2023-06-22T05:02:46;7.00;;;3.40;;
62509;SDS011;48558;48.242;11.654;2023-06-22T05:06:59;5.97;;;3.80;;
62509;SDS011;48558;48.242;11.654;2023-06-22T05:11:12;6.32;;;3.92;;
62509;SDS011;48558;48.242;11.654;2023-06-22T05:15:34;5.72;;;4.13;;
62509;SDS011;48558;48.242;11.654;2023-06-22T05:19:52;8.70;;;3.35;;
62509;SDS011;48558;48.242;11.654;2023-06-22T05:24:04;8.10;;;4.20;;
62509;SDS011;48558;48.242;11.654;2023-06-22T05:28:17;6.32;;;3.70;;
62509;SDS011;48558;48.242;11.654;2023-06-22T05:32:35;5.13;;;3.40;;
62509;SDS011;48558;48.242;11.654;2023-06-22T05:36:48;6.30;;;3.42;;
62509;SDS011;48558;48.242;11.654;2023-06-22T05:41:00;6.72;;;3.80;;
62509;SDS011;48558;48.242;11.654;2023-06-22T05:45:21;6.88;;;4.15;;
62509;SDS011;48558;48.242;11.654;2023-06-22T05:49:34;9.13;;;3.95;;
62509;SDS011;48558;48.242;11.654;2023-06-22T05:53:46;10.07;;;4.05;;
62509;SDS011;48558;48.242;11.654;2023-06-22T05:58:01;7.80;;;4.35;;
62509;SDS011;48558;48.242;11.654;2023-06-22T06:02:15;5.65;;;3.72;;
62509;SDS011;48558;48.242;11.654;2023-06-22T06:06:27;4.63;;;4.05;;
62509;SDS011;48558;48.242;11.654;2023-06-22T06:10:40;6.10;;;4.00;;
62509;SDS011;48558;48.242;11.654;2023-06-22T06:14:53;4.90;;;3.90;;
62509;SDS011;48558;48.242;11.654;2023-06-22T06:19:07;6.10;;;3.90;;
62509;SDS011;48558;48.242;11.654;2023-06-22T06:23:19;5.68;;;3.58;;
62509;SDS011;48558;48.242;11.654;2023-06-22T06:27:42;9.57;;;4.00;;
62509;SDS011;48558;48.242;11.654;2023-06-22T06:32:05;8.07;;;3.80;;
62509;SDS011;48558;48.242;11.654;2023-06-22T06:36:18;9.27;;;4.25;;
62509;SDS011;48558;48.242;11.654;2023-06-22T06:40:32;6.90;;;3.47;;
62509;SDS011;48558;48.242;11.654;2023-06-22T06:44:45;6.47;;;3.55;;
62509;SDS011;48558;48.242;11.654;2023-06-22T06:48:57;8.00;;;4.03;;
62509;SDS011;48558;48.242;11.654;2023-06-22T06:53:10;7.50;;;3.85;;
62509;SDS011;48558;48.242;11.654;2023-06-22T06:57:22;5.03;;;3.92;;
62509;SDS011;48558;48.242;11.654;2023-06-22T07:01:45;5.93;;;3.97;;
62509;SDS011;48558;48.242;11.654;2023-06-22T07:05:57;9.93;;;4.00;;
62509;SDS011;48558;48.242;11.654;2023-06-22T07:10:10;7.30;;;4.40;;
62509;SDS011;48558;48.242;11.654;2023-06-22T07:14:33;5.32;;;3.88;;
62509;SDS011;48558;48.242;11.654;2023-06-22T07:18:45;6.18;;;3.58;;
62509;SDS011;48558;48.242;11.654;2023-06-22T07:22:57;5.22;;;3.85;;
62509;SDS011;48558;48.242;11.654;2023-06-22T07:27:13;6.55;;;4.18;;
62509;SDS011;48558;48.242;11.654;2023-06-22T07:31:28;7.78;;;5.10;;
62509;SDS011;48558;48.242;11.654;2023-06-22T07:35:41;9.27;;;4.07;;
62509;SDS011;48558;48.242;11.654;2023-06-22T07:39:53;4.80;;;3.83;;
62509;SDS011;48558;48.242;11.654;2023-06-22T07:44:10;12.45;;;4.65;;
62509;SDS011;48558;48.242;11.654;2023-06-22T07:48:22;5.55;;;3.50;;
62509;SDS011;48558;48.242;11.654;2023-06-22T07:52:35;7.45;;;3.97;;
62509;SDS011;48558;48.242;11.654;2023-06-22T07:56:47;9.07;;;4.30;;
62509;SDS011;48558;48.242;11.654;2023-06-22T08:01:10;10.63;;;4.00;;
62509;SDS011;48558;48.242;11.654;2023-06-22T08:05:23;7.00;;;4.22;;
62509;SDS011;48558;48.242;11.654;2023-06-22T08:09:46;8.90;;;4.22;;
62509;SDS011;48558;48.242;11.654;2023-06-22T08:14:00;9.05;;;4.30;;
62509;SDS011;48558;48.242;11.654;2023-06-22T08:18:17;5.20;;;3.57;;
62509;SDS011;48558;48.242;11.654;2023-06-22T08:22:30;9.23;;;3.88;;
62509;SDS011;48558;48.242;11.654;2023-06-22T08:26:42;9.45;;;4.20;;
62509;SDS011;48558;48.242;11.654;2023-06-22T08:31:05;11.20;;;4.38;;
62509;SDS011;48558;48.242;11.654;2023-06-22T08:35:17;5.57;;;4.47;;
62509;SDS011;48558;48.242;11.654;2023-06-22T08:39:30;7.13;;;4.22;;
62509;SDS011;48558;48.242;11.654;2023-06-22T08:43:46;13.77;;;4.72;;
62509;SDS011;48558;48.242;11.654;2023-06-22T08:48:02;11.85;;;4.18;;
62509;SDS011;48558;48.242;11.654;2023-06-22T08:52:15;9.80;;;4.53;;
62509;SDS011;48558;48.242;11.654;2023-06-22T08:56:29;7.85;;;4.28;;
62509;SDS011;48558;48.242;11.654;2023-06-22T09:00:42;8.43;;;4.10;;
62509;SDS011;48558;48.242;11.654;2023-06-22T09:04:54;9.80;;;3.90;;
62509;SDS011;48558;48.242;11.654;2023-06-22T09:09:09;8.43;;;4.60;;
62509;SDS011;48558;48.242;11.654;2023-06-22T09:13:21;5.88;;;4.03;;
62509;SDS011;48558;48.242;11.654;2023-06-22T09:17:36;8.95;;;4.22;;
62509;SDS011;48558;48.242;11.654;2023-06-22T09:21:49;9.50;;;4.60;;
62509;SDS011;48558;48.242;11.654;2023-06-22T09:26:02;12.98;;;4.32;;
62509;SDS011;48558;48.242;11.654;2023-06-22T09:30:26;5.65;;;3.63;;
62509;SDS011;48558;48.242;11.654;2023-06-22T09:34:39;10.20;;;4.70;;
62509;SDS011;48558;48.242;11.654;2023-06-22T09:39:02;12.43;;;4.43;;
62509;SDS011;48558;48.242;11.654;2023-06-22T09:43:18;8.15;;;3.92;;
62509;SDS011;48558;48.242;11.654;2023-06-22T09:47:31;9.82;;;4.28;;
62509;SDS011;48558;48.242;11.654;2023-06-22T09:51:44;10.45;;;4.07;;
62509;SDS011;48558;48.242;11.654;2023-06-22T09:55:57;6.22;;;4.72;;
62509;SDS011;48558;48.242;11.654;2023-06-22T10:00:11;8.60;;;4.22;;
62509;SDS011;48558;48.242;11.654;2023-06-22T10:04:27;8.93;;;4.27;;
62509;SDS011;48558;48.242;11.654;2023-06-22T10:08:41;9.40;;;4.32;;
62509;SDS011;48558;48.242;11.654;2023-06-22T10:12:55;6.18;;;3.97;;
62509;SDS011;48558;48.242;11.654;2023-06-22T10:17:09;11.13;;;4.00;;
62509;SDS011;48558;48.242;11.654;2023-06-22T10:21:32;9.85;;;4.22;;
62509;SDS011;48558;48.242;11.654;2023-06-22T10:25:46;10.05;;;4.10;;
62509;SDS011;48558;48.242;11.654;2023-06-22T10:29:59;6.97;;;3.80;;
62509;SDS011;48558;48.242;11.654;2023-06-22T10:34:13;6.75;;;4.30;;
62509;SDS011;48558;48.242;11.654;2023-06-22T10:38:26;9.93;;;3.95;;
62509;SDS011;48558;48.242;11.654;2023-06-22T10:42:39;8.48;;;4.25;;
62509;SDS011;48558;48.242;11.654;2023-06-22T10:46:52;12.38;;;4.55;;
62509;SDS011;48558;48.242;11.654;2023-06-22T10:51:08;8.27;;;4.30;;
62509;SDS011;48558;48.242;11.654;2023-06-22T10:55:28;6.25;;;3.92;;
62509;SDS011;48558;48.242;11.654;2023-06-22T11:00:02;10.23;;;4.13;;
62509;SDS011;48558;48.242;11.654;2023-06-22T11:04:17;5.68;;;3.83;;
62509;SDS011;48558;48.242;11.654;2023-06-22T11:08:30;7.15;;;4.00;;
62509;SDS011;48558;48.242;11.654;2023-06-22T11:12:43;7.30;;;4.15;;
62509;SDS011;48558;48.242;11.654;2023-06-22T11:16:56;10.98;;;4.07;;
62509;SDS011;48558;48.242;11.654;2023-06-22T11:21:09;8.60;;;4.53;;
62509;SDS011;48558;48.242;11.654;2023-06-22T11:25:22;16.85;;;4.78;;
62509;SDS011;48558;48.242;11.654;2023-06-22T11:29:36;19.13;;;4.72;;
62509;SDS011;48558;48.242;11.654;2023-06-22T11:33:51;8.32;;;3.97;;
62509;SDS011;48558;48.242;11.654;2023-06-22T11:38:05;7.22;;;3.92;;
62509;SDS011;48558;48.242;11.654;2023-06-22T11:42:18;8.18;;;4.35;;
62509;SDS011;48558;48.242;11.654;2023-06-22T11:46:32;10.07;;;3.75;;
62509;SDS011;48558;48.242;11.654;2023-06-22T11:50:45;6.13;;;4.30;;
62509;SDS011;48558;48.242;11.654;2023-06-22T11:54:58;6.45;;;4.10;;
62509;SDS011;48558;48.242;11.654;2023-06-22T11:59:11;7.88;;;4.45;;
62509;SDS011;48558;48.242;11.654;2023-06-22T12:03:32;8.98;;;4.15;;
62509;SDS011;48558;48.242;11.654;2023-06-22T12:07:45;8.30;;;3.83;;
62509;SDS011;48558;48.242;11.654;2023-06-22T12:11:58;9.20;;;3.80;;
62509;SDS011;48558;48.242;11.654;2023-06-22T12:16:12;8.52;;;3.80;;
62509;SDS011;48558;48.242;11.654;2023-06-22T12:20:25;10.50;;;4.07;;
62509;SDS011;48558;48.242;11.654;2023-06-22T12:24:39;7.75;;;3.65;;
62509;SDS011;48558;48.242;11.654;2023-06-22T12:28:52;5.57;;;3.65;;
62509;SDS011;48558;48.242;11.654;2023-06-22T12:33:04;9.60;;;3.83;;
62509;SDS011;48558;48.242;11.654;2023-06-22T12:37:18;8.52;;;3.50;;
62509;SDS011;48558;48.242;11.654;2023-06-22T12:41:31;7.18;;;3.80;;
62509;SDS011;48558;48.242;11.654;2023-06-22T12:45:44;10.88;;;3.70;;
62509;SDS011;48558;48.242;11.654;2023-06-22T12:49:57;10.27;;;3.50;;
62509;SDS011;48558;48.242;11.654;2023-06-22T12:54:10;8.80;;;3.15;;
62509;SDS011;48558;48.242;11.654;2023-06-22T12:58:24;7.95;;;3.45;;
62509;SDS011;48558;48.242;11.654;2023-06-22T13:02:37;8.57;;;3.47;;
62509;SDS011;48558;48.242;11.654;2023-06-22T13:06:50;5.75;;;3.30;;
62509;SDS011;48558;48.242;11.654;2023-06-22T13:11:05;9.05;;;3.92;;
62509;SDS011;48558;48.242;11.654;2023-06-22T13:15:28;6.22;;;3.20;;
62509;SDS011;48558;48.242;11.654;2023-06-22T13:19:42;7.07;;;3.55;;
62509;SDS011;48558;48.242;11.654;2023-06-22T13:23:55;10.27;;;3.67;;
62509;SDS011;48558;48.242;11.654;2023-06-22T13:28:08;7.70;;;3.60;;
62509;SDS011;48558;48.242;11.654;2023-06-22T13:32:37;8.75;;;4.25;;
62509;SDS011;48558;48.242;11.654;2023-06-22T13:37:10;8.32;;;3.13;;
62509;SDS011;48558;48.242;11.654;2023-06-22T13:41:49;11.48;;;4.18;;
62509;SDS011;48558;48.242;11.654;2023-06-22T13:46:19;7.30;;;3.33;;
62509;SDS011;48558;48.242;11.654;2023-06-22T13:50:33;12.48;;;3.90;;
62509;SDS011;48558;48.242;11.654;2023-06-22T13:54:46;7.45;;;3.90;;
62509;SDS011;48558;48.242;11.654;2023-06-22T13:58:59;8.82;;;3.28;;
62509;SDS011;48558;48.242;11.654;2023-06-22T14:03:15;11.43;;;4.03;;
62509;SDS011;48558;48.242;11.654;2023-06-22T14:07:28;5.60;;;3.03;;
62509;SDS011;48558;48.242;11.654;2023-06-22T14:11:53;8.52;;;3.65;;
62509;SDS011;48558;48.242;11.654;2023-06-22T14:16:07;8.48;;;3.45;;
62509;SDS011;48558;48.242;11.654;2023-06-22T14:20:20;7.90;;;3.47;;
62509;SDS011;48558;48.242;11.654;2023-06-22T14:24:33;10.20;;;3.65;;
62509;SDS011;48558;48.242;11.654;2023-06-22T14:28:46;8.27;;;3.67;;
62509;SDS011;48558;48.242;11.654;2023-06-22T14:33:02;7.25;;;3.42;;
62509;SDS011;48558;48.242;11.654;2023-06-22T14:37:15;7.35;;;3.15;;
62509;SDS011;48558;48.242;11.654;2023-06-22T14:41:29;8.70;;;3.88;;
62509;SDS011;48558;48.242;11.654;2023-06-22T14:45:42;7.28;;;3.53;;
62509;SDS011;48558;48.242;11.654;2023-06-22T14:49:55;9.15;;;3.65;;
62509;SDS011;48558;48.242;11.654;2023-06-22T14:54:09;9.88;;;3.65;;
62509;SDS011;48558;48.242;11.654;2023-06-22T14:58:22;8.13;;;3.60;;
62509;SDS011;48558;48.242;11.654;2023-06-22T15:02:35;10.93;;;3.42;;
62509;SDS011;48558;48.242;11.654;2023-06-22T15:06:49;8.02;;;3.67;;
62509;SDS011;48558;48.242;11.654;2023-06-22T15:11:02;9.35;;;3.45;;
62509;SDS011;48558;48.242;11.654;2023-06-22T15:15:15;7.80;;;3.35;;
62509;SDS011;48558;48.242;11.654;2023-06-22T15:19:28;9.85;;;4.10;;
62509;SDS011;48558;48.242;11.654;2023-06-22T15:23:41;6.82;;;3.30;;
62509;SDS011;48558;48.242;11.654;2023-06-22T15:28:04;15.52;;;3.42;;
62509;SDS011;48558;48.242;11.654;2023-06-22T15:32:27;10.30;;;3.30;;
62509;SDS011;48558;48.242;11.654;2023-06-22T15:36:41;11.52;;;3.13;;
62509;SDS011;48558;48.242;11.654;2023-06-22T15:40:54;9.65;;;3.53;;
62509;SDS011;48558;48.242;11.654;2023-06-22T15:45:07;11.18;;;3.58;;
62509;SDS011;48558;48.242;11.654;2023-06-22T15:49:20;9.18;;;3.45;;
62509;SDS011;48558;48.242;11.654;2023-06-22T15:53:43;9.35;;;3.53;;
62509;SDS011;48558;48.242;11.654;2023-06-22T15:57:56;10.10;;;3.40;;
62509;SDS011;48558;48.242;11.654;2023-06-22T16:02:09;8.35;;;3.20;;
62509;SDS011;48558;48.242;11.654;2023-06-22T16:06:23;13.43;;;3.42;;
62509;SDS011;48558;48.242;11.654;2023-06-22T16:10:41;14.70;;;3.78;;
62509;SDS011;48558;48.242;11.654;2023-06-22T16:14:54;8.07;;;3.53;;
62509;SDS011;48558;48.242;11.654;2023-06-22T16:19:15;9.52;;;3.92;;
62509;SDS011;48558;48.242;11.654;2023-06-22T16:23:28;6.35;;;3.53;;
62509;SDS011;48558;48.242;11.654;2023-06-22T16:27:41;9.85;;;3.15;;
62509;SDS011;48558;48.242;11.654;2023-06-22T16:31:57;5.13;;;3.67;;
62509;SDS011;48558;48.242;11.654;2023-06-22T16:36:10;8.85;;;3.95;;
62509;SDS011;48558;48.242;11.654;2023-06-22T16:40:23;9.60;;;3.92;;
62509;SDS011;48558;48.242;11.654;2023-06-22T16:44:36;12.95;;;3.67;;
62509;SDS011;48558;48.242;11.654;2023-06-22T16:48:49;14.90;;;3.60;;
62509;SDS011;48558;48.242;11.654;2023-06-22T16:53:05;10.67;;;3.60;;
62509;SDS011;48558;48.242;11.654;2023-06-22T16:57:18;11.25;;;3.65;;
62509;SDS011;48558;48.242;11.654;2023-06-22T17:01:33;7.80;;;4.10;;
62509;SDS011;48558;48.242;11.654;2023-06-22T17:05:47;12.68;;;3.95;;
62509;SDS011;48558;48.242;11.654;2023-06-22T17:10:00;11.20;;;4.13;;
62509;SDS011;48558;48.242;11.654;2023-06-22T17:14:14;14.77;;;4.50;;
62509;SDS011;48558;48.242;11.654;2023-06-22T17:18:27;11.35;;;4.00;;
62509;SDS011;48558;48.242;11.654;2023-06-22T17:22:50;10.05;;;4.07;;
62509;SDS011;48558;48.242;11.654;2023-06-22T17:27:03;7.70;;;3.80;;
62509;SDS011;48558;48.242;11.654;2023-06-22T17:31:17;12.68;;;4.22;;
62509;SDS011;48558;48.242;11.654;2023-06-22T17:35:30;22.27;;;5.13;;
62509;SDS011;48558;48.242;11.654;2023-06-22T17:39:44;18.95;;;5.20;;
62509;SDS011;48558;48.242;11.654;2023-06-22T17:44:06;14.07;;;4.05;;
62509;SDS011;48558;48.242;11.654;2023-06-22T17:48:21;9.43;;;3.42;;
62509;SDS011;48558;48.242;11.654;2023-06-22T17:52:35;7.35;;;2.67;;
62509;SDS011;48558;48.242;11.654;2023-06-22T17:56:50;12.52;;;3.30;;
62509;SDS011;48558;48.242;11.654;2023-06-22T18:01:13;9.70;;;3.00;;
62509;SDS011;48558;48.242;11.654;2023-06-22T18:05:35;7.65;;;2.38;;
62509;SDS011;48558;48.242;11.654;2023-06-22T18:09:49;10.13;;;3.38;;
62509;SDS011;48558;48.242;11.654;2023-06-22T18:14:02;13.80;;;3.20;;
62509;SDS011;48558;48.242;11.654;2023-06-22T18:18:16;6.68;;;2.63;;
62509;SDS011;48558;48.242;11.654;2023-06-22T18:22:29;9.15;;;2.20;;
62509;SDS011;48558;48.242;11.654;2023-06-22T18:26:41;11.13;;;2.50;;
62509;SDS011;48558;48.242;11.654;2023-06-22T18:31:05;6.72;;;2.90;;
62509;SDS011;48558;48.242;11.654;2023-06-22T18:35:18;10.30;;;3.10;;
62509;SDS011;48558;48.242;11.654;2023-06-22T18:39:31;10.65;;;2.88;;
62509;SDS011;48558;48.242;11.654;2023-06-22T18:43:44;8.65;;;2.75;;
62509;SDS011;48558;48.242;11.654;2023-06-22T18:48:02;12.27;;;2.97;;
62509;SDS011;48558;48.242;11.654;2023-06-22T18:52:25;6.50;;;2.63;;
62509;SDS011;48558;48.242;11.654;2023-06-22T18:56:50;9.00;;;2.50;;
62509;SDS011;48558;48.242;11.654;2023-06-22T19:01:17;9.18;;;3.22;;
62509;SDS011;48558;48.242;11.654;2023-06-22T19:05:37;10.50;;;3.15;;
62509;SDS011;48558;48.242;11.654;2023-06-22T19:14:58;7.00;;;2.38;;
62509;SDS011;48558;48.242;11.654;2023-06-22T19:19:21;8.35;;;2.47;;
62509;SDS011;48558;48.242;11.654;2023-06-22T19:23:34;6.70;;;3.13;;
62509;SDS011;48558;48.242;11.654;2023-06-22T19:27:55;8.48;;;2.88;;
62509;SDS011;48558;48.242;11.654;2023-06-22T19:32:20;4.63;;;2.45;;
62509;SDS011;48558;48.242;11.654;2023-06-22T19:36:33;10.40;;;3.42;;
62509;SDS011;48558;48.242;11.654;2023-06-22T19:40:46;6.30;;;2.75;;
62509;SDS011;48558;48.242;11.654;2023-06-22T19:45:09;10.40;;;3.45;;
62509;SDS011;48558;48.242;11.654;2023-06-22T19:49:27;12.95;;;3.30;;
62509;SDS011;48558;48.242;11.654;2023-06-22T19:53:49;23.27;;;5.80;;
62509;SDS011;48558;48.242;11.654;2023-06-22T19:58:02;12.43;;;5.07;;
62509;SDS011;48558;48.242;11.654;2023-06-22T20:02:14;11.80;;;4.85;;
62509;SDS011;48558;48.242;11.654;2023-06-22T20:06:27;10.68;;;3.95;;
62509;SDS011;48558;48.242;11.654;2023-06-22T20:10:40;5.40;;;3.58;;
62509;SDS011;48558;48.242;11.654;2023-06-22T20:19:45;4.10;;;2.90;;
62509;SDS011;48558;48.242;11.654;2023-06-22T20:28:17;4.88;;;2.45;;
62509;SDS011;48558;48.242;11.654;2023-06-22T20:32:31;5.93;;;3.03;;
62509;SDS011;48558;48.242;11.654;2023-06-22T20:36:53;11.55;;;3.42;;
62509;SDS011;48558;48.242;11.654;2023-06-22T20:41:06;4.53;;;3.35;;
62509;SDS011;48558;48.242;11.654;2023-06-22T20:45:18;6.95;;;3.22;;
62509;SDS011;48558;48.242;11.654;2023-06-22T20:49:31;6.35;;;3.15;;
62509;SDS011;48558;48.242;11.654;2023-06-22T20:53:44;5.50;;;3.22;;
62509;SDS011;48558;48.242;11.654;2023-06-22T20:57:56;7.13;;;3.22;;
62509;SDS011;48558;48.242;11.654;2023-06-22T21:02:09;8.73;;;3.88;;
62509;SDS011;48558;48.242;11.654;2023-06-22T21:06:21;10.07;;;4.07;;
62509;SDS011;48558;48.242;11.654;2023-06-22T21:10:34;11.38;;;4.28;;
62509;SDS011;48558;48.242;11.654;2023-06-22T21:14:46;5.28;;;3.47;;
62509;SDS011;48558;48.242;11.654;2023-06-22T21:19:02;8.35;;;4.45;;
62509;SDS011;48558;48.242;11.654;2023-06-22T21:23:17;10.35;;;3.85;;
62509;SDS011;48558;48.242;11.654;2023-06-22T21:27:29;6.80;;;3.45;;
62509;SDS011;48558;48.242;11.654;2023-06-22T21:31:42;7.03;;;3.58;;
62509;SDS011;48558;48.242;11.654;2023-06-22T21:36:04;4.30;;;3.00;;
62509;SDS011;48558;48.242;11.654;2023-06-22T21:40:17;7.55;;;4.32;;
62509;SDS011;48558;48.242;11.654;2023-06-22T21:44:30;15.77;;;4.38;;
62509;SDS011;48558;48.242;11.654;2023-06-22T21:48:42;12.85;;;3.92;;
62509;SDS011;48558;48.242;11.654;2023-06-22T21:52:54;7.70;;;3.80;;
62509;SDS011;48558;48.242;11.654;2023-06-22T21:57:07;11.77;;;4.40;;
62509;SDS011;48558;48.242;11.654;2023-06-22T22:01:20;10.40;;;4.15;;
62509;SDS011;48558;48.242;11.654;2023-06-22T22:05:35;12.52;;;3.72;;
62509;SDS011;48558;48.242;11.654;2023-06-22T22:09:48;10.82;;;4.53;;
62509;SDS011;48558;48.242;11.654;2023-06-22T22:14:00;5.95;;;3.17;;
62509;SDS011;48558;48.242;11.654;2023-06-22T22:18:13;12.48;;;3.60;;
62509;SDS011;48558;48.242;11.654;2023-06-22T22:22:34;8.00;;;3.28;;
62509;SDS011;48558;48.242;11.654;2023-06-22T22:26:47;6.07;;;3.60;;
62509;SDS011;48558;48.242;11.654;2023-06-22T22:30:59;8.93;;;3.10;;
62509;SDS011;48558;48.242;11.654;2023-06-22T22:35:14;9.27;;;3.05;;
62509;SDS011;48558;48.242;11.654;2023-06-22T22:39:30;6.35;;;3.50;;
62509;SDS011;48558;48.242;11.654;2023-06-22T22:43:55;6.20;;;3.30;;
62509;SDS011;48558;48.242;11.654;2023-06-22T22:48:08;7.25;;;3.00;;
62509;SDS011;48558;48.242;11.654;2023-06-22T22:52:21;3.60;;;2.70;;
62509;SDS011;48558;48.242;11.654;2023-06-22T22:56:34;5.20;;;3.08;;
62509;SDS011;48558;48.242;11.654;2023-06-22T23:00:46;6.00;;;2.38;;
62509;SDS011;48558;48.242;11.654;2023-06-22T23:04:59;5.53;;;2.58;;
62509;SDS011;48558;48.242;11.654;2023-06-22T23:09:13;2.42;;;2.22;;
62509;SDS011;48558;48.242;11.654;2023-06-22T23:13:26;3.38;;;1.92;;
62509;SDS011;48558;48.242;11.654;2023-06-22T23:17:39;1.85;;;1.75;;
62509;SDS011;48558;48.242;11.654;2023-06-22T23:21:52;2.10;;;1.90;;
62509;SDS011;48558;48.242;11.654;2023-06-22T23:26:14;2.88;;;1.42;;
62509;SDS011;48558;48.242;11.654;2023-06-22T23:30:26;1.73;;;1.50;;
62509;SDS011;48558;48.242;11.654;2023-06-22T23:34:48;4.40;;;1.80;;
62509;SDS011;48558;48.242;11.654;2023-06-22T23:39:01;2.58;;;1.73;;
62509;SDS011;48558;48.242;11.654;2023-06-22T23:43:13;2.83;;;1.90;;
62509;SDS011;48558;48.242;11.654;2023-06-22T23:47:26;4.60;;;1.60;;
62509;SDS011;48558;48.242;11.654;2023-06-22T23:51:41;5.20;;;1.70;;
62509;SDS011;48558;48.242;11.654;2023-06-22T23:55:53;3.40;;;1.67;;
